createdAt,value
2018-07-09T00:00:06.825Z,77.59
2018-07-09T00:01:06.981Z,77.59
2018-07-09T00:02:07.132Z,77.59
2018-07-09T00:03:07.285Z,77.59
2018-07-09T00:04:07.440Z,77.88
2018-07-09T00:05:07.596Z,78.07
2018-07-09T00:06:07.781Z,78.45
2018-07-09T00:07:07.904Z,78.03
2018-07-09T00:08:08.054Z,78.17
2018-07-09T00:09:08.208Z,78.13
2018-07-09T00:10:08.363Z,78.22
2018-07-09T00:11:08.514Z,78.55
2018-07-09T00:12:08.669Z,78.61
2018-07-09T00:13:08.823Z,79.28
2018-07-09T00:14:08.990Z,80.14
2018-07-09T00:15:09.139Z,80.43
2018-07-09T00:16:09.293Z,80.52
2018-07-09T00:17:09.449Z,80.62
2018-07-09T00:18:09.602Z,80.71
2018-07-09T00:19:09.757Z,79.85
2018-07-09T00:20:09.906Z,79.75
2018-07-09T00:21:10.063Z,80.52
2018-07-09T00:22:10.216Z,80.14
2018-07-09T00:23:10.371Z,80.04
2018-07-09T00:24:10.525Z,79.37
2018-07-09T00:25:10.678Z,79.66
2018-07-09T00:26:10.831Z,80.04
2018-07-09T00:27:10.986Z,79.37
2018-07-09T00:28:11.138Z,79.47
2018-07-09T00:29:11.294Z,78.89
2018-07-09T00:30:11.445Z,78.80
2018-07-09T00:31:11.599Z,78.89
2018-07-09T00:32:11.800Z,78.61
2018-07-09T00:33:11.907Z,78.99
2018-07-09T00:34:12.061Z,79.08
2018-07-09T00:35:12.215Z,79.28
2018-07-09T00:36:12.369Z,79.95
2018-07-09T00:37:12.521Z,80.00
2018-07-09T00:38:12.674Z,80.19
2018-07-09T00:39:12.828Z,80.52
2018-07-09T00:40:12.985Z,80.24
2018-07-09T00:41:13.135Z,80.67
2018-07-09T00:42:13.287Z,80.29
2018-07-09T00:43:13.442Z,80.19
2018-07-09T00:44:13.596Z,80.48
2018-07-09T00:45:13.753Z,81.34
2018-07-09T00:46:13.903Z,81.15
2018-07-09T00:47:14.064Z,81.63
2018-07-09T00:48:14.212Z,81.54
2018-07-09T00:49:14.366Z,82.11
2018-07-09T00:50:14.520Z,82.20
2018-07-09T00:51:14.678Z,82.30
2018-07-09T00:52:14.828Z,82.01
2018-07-09T00:53:14.979Z,82.68
2018-07-09T00:54:15.135Z,82.68
2018-07-09T00:55:15.286Z,82.78
2018-07-09T00:56:15.440Z,82.30
2018-07-09T00:57:15.596Z,81.92
2018-07-09T00:58:15.745Z,82.01
2018-07-09T00:59:15.900Z,81.92
2018-07-09T01:00:16.053Z,81.92
2018-07-09T01:01:16.205Z,82.30
2018-07-09T01:02:16.357Z,82.11
2018-07-09T01:03:16.518Z,82.49
2018-07-09T01:04:16.666Z,82.87
2018-07-09T01:05:16.817Z,82.45
2018-07-09T01:06:16.973Z,82.17
2018-07-09T01:07:17.127Z,83.16
2018-07-09T01:08:17.280Z,83.31
2018-07-09T01:09:17.428Z,83.31
2018-07-09T01:10:17.587Z,83.12
2018-07-09T01:11:17.742Z,83.60
2018-07-09T01:12:17.888Z,83.22
2018-07-09T01:13:18.048Z,83.12
2018-07-09T01:14:18.196Z,83.03
2018-07-09T01:15:18.349Z,82.68
2018-07-09T01:16:18.501Z,82.87
2018-07-09T01:17:18.652Z,83.22
2018-07-09T01:18:18.808Z,82.93
2018-07-09T01:19:18.960Z,82.74
2018-07-09T01:20:19.167Z,83.03
2018-07-09T01:21:19.269Z,83.22
2018-07-09T01:22:19.420Z,82.83
2018-07-09T01:23:19.575Z,83.12
2018-07-09T01:24:19.727Z,83.31
2018-07-09T01:25:19.886Z,83.12
2018-07-09T01:26:20.039Z,82.93
2018-07-09T01:27:20.192Z,83.03
2018-07-09T01:28:20.348Z,82.93
2018-07-09T01:29:20.493Z,83.40
2018-07-09T01:30:20.647Z,83.31
2018-07-09T01:31:20.802Z,83.03
2018-07-09T01:32:20.955Z,83.31
2018-07-09T01:33:21.108Z,83.89
2018-07-09T01:34:21.262Z,83.98
2018-07-09T01:35:21.415Z,84.94
2018-07-09T01:36:21.567Z,84.75
2018-07-09T01:37:21.720Z,84.36
2018-07-09T01:38:21.873Z,84.36
2018-07-09T01:39:22.028Z,85.18
2018-07-09T01:40:22.178Z,85.09
2018-07-09T01:41:22.333Z,85.57
2018-07-09T01:42:22.484Z,84.52
2018-07-09T01:43:22.640Z,85.09
2018-07-09T01:44:22.792Z,84.42
2018-07-09T01:45:22.945Z,84.99
2018-07-09T01:46:23.099Z,84.42
2018-07-09T01:47:23.252Z,84.89
2018-07-09T01:48:23.402Z,84.99
2018-07-09T01:49:23.557Z,85.47
2018-07-09T01:50:23.709Z,85.18
2018-07-09T01:51:23.863Z,85.66
2018-07-09T01:52:24.017Z,85.28
2018-07-09T01:53:24.177Z,84.99
2018-07-09T01:54:24.323Z,84.61
2018-07-09T01:55:24.474Z,85.09
2018-07-09T01:56:24.629Z,84.61
2018-07-09T01:57:24.781Z,85.09
2018-07-09T01:58:24.932Z,85.09
2018-07-09T01:59:25.086Z,84.70
2018-07-09T02:00:25.240Z,84.65
2018-07-09T02:01:25.393Z,85.47
2018-07-09T02:02:25.548Z,85.75
2018-07-09T02:03:25.700Z,85.94
2018-07-09T02:04:25.854Z,86.23
2018-07-09T02:05:26.007Z,86.71
2018-07-09T02:06:26.163Z,86.33
2018-07-09T02:07:26.315Z,86.52
2018-07-09T02:08:26.470Z,86.43
2018-07-09T02:09:26.625Z,87.19
2018-07-09T02:10:26.779Z,87.00
2018-07-09T02:11:26.934Z,86.33
2018-07-09T02:12:27.087Z,86.14
2018-07-09T02:13:27.239Z,87.00
2018-07-09T02:14:27.392Z,86.61
2018-07-09T02:15:27.546Z,86.71
2018-07-09T02:16:27.697Z,86.80
2018-07-09T02:17:27.880Z,86.04
2018-07-09T02:18:28.035Z,86.33
2018-07-09T02:19:28.183Z,86.52
2018-07-09T02:20:28.367Z,86.71
2018-07-09T02:21:28.491Z,86.23
2018-07-09T02:22:28.643Z,86.33
2018-07-09T02:23:28.796Z,86.23
2018-07-09T02:24:28.948Z,85.75
2018-07-09T02:25:29.100Z,85.94
2018-07-09T02:26:29.255Z,85.38
2018-07-09T02:27:29.409Z,85.66
2018-07-09T02:28:29.562Z,85.94
2018-07-09T02:29:29.715Z,86.23
2018-07-09T02:30:29.870Z,86.61
2018-07-09T02:31:30.023Z,86.52
2018-07-09T02:32:30.176Z,86.61
2018-07-09T02:33:30.328Z,86.61
2018-07-09T02:34:30.481Z,87.09
2018-07-09T02:35:30.639Z,87.19
2018-07-09T02:36:30.785Z,86.71
2018-07-09T02:37:30.940Z,87.57
2018-07-09T02:38:31.091Z,87.86
2018-07-09T02:39:31.244Z,87.66
2018-07-09T02:40:31.398Z,88.29
2018-07-09T02:41:31.552Z,88.39
2018-07-09T02:42:31.707Z,88.68
2018-07-09T02:43:31.855Z,88.96
2018-07-09T02:44:32.011Z,88.96
2018-07-09T02:45:32.163Z,88.68
2018-07-09T02:46:32.318Z,89.06
2018-07-09T02:47:32.471Z,89.44
2018-07-09T02:48:32.620Z,90.01
2018-07-09T02:49:32.774Z,89.73
2018-07-09T02:50:32.927Z,90.11
2018-07-09T02:51:33.078Z,89.82
2018-07-09T02:52:33.233Z,89.63
2018-07-09T02:53:33.386Z,90.01
2018-07-09T02:54:33.543Z,90.39
2018-07-09T02:55:33.695Z,90.49
2018-07-09T02:56:33.863Z,90.97
2018-07-09T02:57:33.999Z,91.16
2018-07-09T02:58:34.157Z,90.78
2018-07-09T02:59:34.305Z,91.16
2018-07-09T03:00:34.458Z,91.16
2018-07-09T03:01:34.613Z,91.35
2018-07-09T03:02:34.763Z,91.54
2018-07-09T03:03:34.920Z,91.93
2018-07-09T03:04:35.075Z,92.64
2018-07-09T03:05:35.228Z,92.36
2018-07-09T03:06:35.382Z,92.45
2018-07-09T03:07:35.532Z,92.11
2018-07-09T03:08:35.684Z,90.92
2018-07-09T03:09:35.839Z,90.78
2018-07-09T03:10:35.991Z,91.69
2018-07-09T03:11:36.146Z,91.88
2018-07-09T03:12:36.301Z,92.93
2018-07-09T03:13:36.449Z,91.97
2018-07-09T03:14:36.605Z,92.55
2018-07-09T03:15:36.759Z,92.74
2018-07-09T03:16:36.910Z,91.78
2018-07-09T03:17:37.063Z,91.88
2018-07-09T03:18:37.214Z,92.36
2018-07-09T03:19:37.367Z,92.64
2018-07-09T03:20:37.519Z,92.16
2018-07-09T03:21:37.672Z,92.45
2018-07-09T03:22:37.822Z,91.50
2018-07-09T03:23:37.975Z,92.83
2018-07-09T03:24:38.130Z,93.12
2018-07-09T03:25:38.282Z,93.02
2018-07-09T03:26:38.432Z,92.64
2018-07-09T03:27:38.588Z,92.64
2018-07-09T03:28:38.737Z,92.74
2018-07-09T03:29:38.933Z,92.55
2018-07-09T03:30:39.045Z,92.64
2018-07-09T03:31:39.195Z,92.83
2018-07-09T03:32:39.347Z,92.83
2018-07-09T03:33:39.532Z,92.64
2018-07-09T03:34:39.654Z,93.12
2018-07-09T03:35:39.808Z,92.55
2018-07-09T03:36:39.958Z,92.74
2018-07-09T03:37:40.110Z,93.21
2018-07-09T03:38:40.263Z,93.60
2018-07-09T03:39:40.417Z,94.17
2018-07-09T03:40:40.570Z,93.98
2018-07-09T03:41:40.721Z,94.74
2018-07-09T03:42:40.876Z,94.46
2018-07-09T03:43:41.026Z,94.17
2018-07-09T03:44:41.179Z,93.98
2018-07-09T03:45:41.330Z,93.88
2018-07-09T03:46:41.491Z,94.36
2018-07-09T03:47:41.636Z,94.17
2018-07-09T03:48:41.787Z,94.84
2018-07-09T03:49:41.943Z,94.74
2018-07-09T03:50:42.095Z,94.93
2018-07-09T03:51:42.248Z,95.41
2018-07-09T03:52:42.401Z,94.93
2018-07-09T03:53:42.555Z,94.65
2018-07-09T03:54:42.705Z,94.74
2018-07-09T03:55:42.859Z,94.07
2018-07-09T03:56:43.013Z,94.17
2018-07-09T03:57:43.166Z,94.17
2018-07-09T03:58:43.320Z,94.17
2018-07-09T03:59:43.471Z,94.17
2018-07-09T04:00:43.626Z,93.98
2018-07-09T04:01:43.774Z,94.07
2018-07-09T04:02:43.925Z,94.17
2018-07-09T04:03:44.082Z,93.88
2018-07-09T04:04:44.232Z,93.65
2018-07-09T04:05:44.384Z,94.02
2018-07-09T04:06:44.536Z,94.22
2018-07-09T04:07:44.687Z,93.93
2018-07-09T04:08:44.839Z,94.12
2018-07-09T04:09:44.995Z,94.02
2018-07-09T04:10:45.145Z,93.74
2018-07-09T04:11:45.300Z,94.31
2018-07-09T04:12:45.456Z,94.74
2018-07-09T04:13:45.604Z,94.70
2018-07-09T04:14:45.761Z,95.22
2018-07-09T04:15:45.912Z,94.51
2018-07-09T04:16:46.063Z,94.22
2018-07-09T04:17:46.214Z,94.79
2018-07-09T04:18:46.368Z,94.60
2018-07-09T04:19:46.521Z,95.56
2018-07-09T04:20:46.681Z,95.36
2018-07-09T04:21:46.831Z,95.56
2018-07-09T04:22:46.981Z,95.07
2018-07-09T04:23:47.132Z,94.70
2018-07-09T04:24:47.285Z,94.79
2018-07-09T04:25:47.440Z,94.51
2018-07-09T04:26:47.609Z,94.02
2018-07-09T04:27:47.735Z,93.84
2018-07-09T04:28:47.887Z,93.74
2018-07-09T04:29:48.039Z,94.02
2018-07-09T04:30:48.192Z,93.65
2018-07-09T04:31:48.401Z,93.07
2018-07-09T04:32:48.497Z,92.69
2018-07-09T04:33:48.650Z,91.74
2018-07-09T04:34:48.803Z,91.93
2018-07-09T04:35:48.955Z,91.64
2018-07-09T04:36:49.109Z,90.88
2018-07-09T04:37:49.331Z,90.78
2018-07-09T04:38:49.413Z,90.34
2018-07-09T04:39:49.567Z,89.58
2018-07-09T04:40:49.720Z,89.20
2018-07-09T04:41:49.876Z,89.01
2018-07-09T04:42:50.032Z,88.43
2018-07-09T04:43:50.184Z,88.15
2018-07-09T04:44:50.337Z,87.86
2018-07-09T04:45:50.489Z,87.66
2018-07-09T04:46:50.644Z,87.52
2018-07-09T04:47:50.796Z,87.57
2018-07-09T04:48:50.949Z,87.66
2018-07-09T04:49:51.110Z,89.01
2018-07-09T04:50:51.258Z,89.67
2018-07-09T04:51:51.412Z,88.81
2018-07-09T04:52:51.567Z,89.01
2018-07-09T04:53:51.719Z,88.24
2018-07-09T04:54:51.872Z,88.34
2018-07-09T04:55:52.027Z,88.09
2018-07-09T04:56:52.186Z,87.90
2018-07-09T04:57:52.337Z,87.43
2018-07-09T04:58:52.488Z,87.95
2018-07-09T04:59:52.641Z,88.24
2018-07-09T05:00:52.794Z,88.09
2018-07-09T05:01:52.946Z,87.90
2018-07-09T05:02:53.097Z,86.37
2018-07-09T05:03:53.252Z,86.18
2018-07-09T05:04:53.407Z,85.71
2018-07-09T05:05:53.561Z,86.66
2018-07-09T05:06:53.713Z,86.18
2018-07-09T05:07:53.880Z,86.66
2018-07-09T05:08:54.024Z,86.28
2018-07-09T05:09:54.175Z,86.28
2018-07-09T05:10:54.332Z,85.89
2018-07-09T05:11:54.481Z,86.18
2018-07-09T05:12:54.637Z,86.28
2018-07-09T05:13:54.787Z,86.76
2018-07-09T05:14:54.942Z,85.89
2018-07-09T05:15:55.094Z,85.51
2018-07-09T05:16:55.250Z,85.17
2018-07-09T05:17:55.400Z,85.13
2018-07-09T05:18:55.554Z,85.17
2018-07-09T05:19:55.709Z,84.59
2018-07-09T05:20:55.865Z,84.98
2018-07-09T05:21:56.016Z,84.06
2018-07-09T05:22:56.169Z,84.16
2018-07-09T05:23:56.329Z,84.06
2018-07-09T05:24:56.479Z,83.30
2018-07-09T05:25:56.631Z,83.39
2018-07-09T05:26:56.785Z,83.39
2018-07-09T05:27:56.943Z,82.63
2018-07-09T05:28:57.092Z,82.43
2018-07-09T05:29:57.247Z,82.38
2018-07-09T05:30:57.402Z,82.76
2018-07-09T05:31:57.553Z,82.19
2018-07-09T05:32:57.718Z,82.76
2018-07-09T05:33:57.861Z,82.38
2018-07-09T05:34:58.017Z,82.48
2018-07-09T05:35:58.170Z,81.81
2018-07-09T05:36:58.321Z,82.29
2018-07-09T05:37:58.478Z,82.19
2018-07-09T05:38:58.637Z,81.62
2018-07-09T05:39:58.822Z,80.94
2018-07-09T05:40:58.943Z,80.51
2018-07-09T05:41:59.098Z,79.83
2018-07-09T05:42:59.251Z,79.45
2018-07-09T05:43:59.407Z,80.03
2018-07-09T05:44:59.561Z,79.30
2018-07-09T05:45:59.715Z,79.21
2018-07-09T05:46:59.885Z,78.82
2018-07-09T05:48:00.024Z,78.92
2018-07-09T05:49:00.175Z,78.44
2018-07-09T05:50:00.332Z,78.25
2018-07-09T05:51:00.485Z,77.76
2018-07-09T05:52:00.643Z,77.09
2018-07-09T05:53:00.795Z,76.32
2018-07-09T05:54:00.951Z,76.42
2018-07-09T05:55:01.104Z,75.65
2018-07-09T05:56:01.262Z,75.65
2018-07-09T05:57:01.413Z,75.60
2018-07-09T05:58:01.568Z,75.21
2018-07-09T05:59:01.852Z,75.02
2018-07-09T06:00:01.880Z,74.35
2018-07-09T06:01:02.036Z,74.10
2018-07-09T06:02:02.192Z,73.33
2018-07-09T06:03:02.343Z,72.95
2018-07-09T06:04:02.501Z,72.85
2018-07-09T06:05:02.658Z,73.04
2018-07-09T06:06:02.813Z,72.47
2018-07-09T06:07:02.967Z,72.47
2018-07-09T06:08:03.123Z,72.37
2018-07-09T06:09:03.281Z,71.45
2018-07-09T06:10:03.436Z,70.87
2018-07-09T06:11:03.600Z,70.01
2018-07-09T06:12:03.747Z,70.10
2018-07-09T06:13:03.904Z,70.97
2018-07-09T06:14:04.059Z,71.06
2018-07-09T06:15:04.215Z,70.39
2018-07-09T06:16:04.374Z,70.01
2018-07-09T06:17:04.526Z,69.62
2018-07-09T06:18:04.680Z,70.20
2018-07-09T06:19:04.837Z,70.01
2018-07-09T06:20:04.993Z,69.85
2018-07-09T06:21:05.148Z,68.60
2018-07-09T06:22:05.305Z,68.47
2018-07-09T06:23:05.461Z,68.51
2018-07-09T06:24:05.614Z,68.89
2018-07-09T06:25:05.770Z,68.41
2018-07-09T06:26:05.929Z,67.93
2018-07-09T06:27:06.082Z,66.97
2018-07-09T06:28:06.238Z,66.61
2018-07-09T06:29:06.394Z,65.84
2018-07-09T06:30:06.553Z,65.94
2018-07-09T06:31:06.708Z,66.23
2018-07-09T06:32:06.863Z,66.23
2018-07-09T06:33:07.019Z,65.37
2018-07-09T06:34:07.175Z,65.37
2018-07-09T06:35:07.331Z,66.04
2018-07-09T06:36:07.486Z,65.56
2018-07-09T06:37:07.643Z,65.66
2018-07-09T06:38:07.799Z,65.30
2018-07-09T06:39:07.953Z,66.14
2018-07-09T06:40:08.111Z,65.94
2018-07-09T06:41:08.266Z,65.46
2018-07-09T06:42:08.422Z,66.04
2018-07-09T06:43:08.581Z,66.14
2018-07-09T06:44:08.738Z,65.75
2018-07-09T06:45:08.895Z,66.58
2018-07-09T06:46:09.051Z,65.91
2018-07-09T06:47:09.206Z,65.81
2018-07-09T06:48:09.364Z,66.49
2018-07-09T06:49:09.517Z,66.74
2018-07-09T06:50:09.710Z,67.41
2018-07-09T06:51:09.829Z,67.32
2018-07-09T06:52:09.994Z,67.80
2018-07-09T06:53:10.143Z,67.90
2018-07-09T06:54:10.301Z,67.22
2018-07-09T06:55:10.453Z,67.22
2018-07-09T06:56:10.610Z,67.83
2018-07-09T06:57:10.770Z,67.45
2018-07-09T06:58:10.921Z,66.10
2018-07-09T06:59:11.078Z,66.77
2018-07-09T07:00:11.235Z,66.97
2018-07-09T07:01:11.389Z,67.22
2018-07-09T07:02:11.578Z,67.61
2018-07-09T07:03:11.700Z,67.22
2018-07-09T07:04:11.855Z,67.41
2018-07-09T07:05:12.012Z,66.97
2018-07-09T07:06:12.166Z,67.35
2018-07-09T07:07:12.319Z,67.07
2018-07-09T07:08:12.476Z,66.49
2018-07-09T07:09:12.728Z,66.97
2018-07-09T07:10:12.790Z,66.20
2018-07-09T07:11:12.941Z,66.00
2018-07-09T07:12:13.094Z,66.77
2018-07-09T07:13:13.250Z,66.00
2018-07-09T07:14:13.454Z,66.68
2018-07-09T07:15:13.557Z,66.61
2018-07-09T07:16:13.712Z,65.94
2018-07-09T07:17:13.871Z,65.84
2018-07-09T07:18:14.027Z,66.04
2018-07-09T07:19:14.184Z,66.23
2018-07-09T07:20:14.340Z,65.84
2018-07-09T07:21:14.496Z,66.42
2018-07-09T07:22:14.653Z,65.27
2018-07-09T07:23:14.805Z,66.23
2018-07-09T07:24:14.961Z,65.46
2018-07-09T07:25:15.117Z,65.56
2018-07-09T07:26:15.273Z,65.46
2018-07-09T07:27:15.427Z,65.46
2018-07-09T07:28:15.588Z,65.59
2018-07-09T07:29:15.739Z,65.59
2018-07-09T07:30:15.895Z,64.53
2018-07-09T07:31:16.048Z,64.43
2018-07-09T07:32:16.205Z,64.73
2018-07-09T07:33:16.415Z,64.82
2018-07-09T07:34:16.516Z,65.01
2018-07-09T07:35:16.672Z,64.43
2018-07-09T07:36:16.826Z,64.73
2018-07-09T07:37:16.985Z,64.82
2018-07-09T07:38:17.137Z,64.63
2018-07-09T07:39:17.314Z,64.73
2018-07-09T07:40:17.453Z,63.86
2018-07-09T07:41:17.610Z,64.34
2018-07-09T07:42:17.766Z,63.86
2018-07-09T07:43:17.923Z,63.67
2018-07-09T07:44:18.076Z,63.38
2018-07-09T07:45:18.232Z,64.37
2018-07-09T07:46:18.389Z,63.79
2018-07-09T07:47:18.545Z,63.15
2018-07-09T07:48:18.702Z,62.83
2018-07-09T07:49:18.857Z,62.74
2018-07-09T07:50:19.076Z,61.58
2018-07-09T07:51:19.172Z,62.64
2018-07-09T07:52:19.330Z,62.26
2018-07-09T07:53:19.482Z,61.77
2018-07-09T07:54:19.640Z,62.26
2018-07-09T07:55:19.795Z,62.29
2018-07-09T07:56:19.953Z,61.52
2018-07-09T07:57:20.111Z,60.75
2018-07-09T07:58:20.264Z,59.69
2018-07-09T07:59:20.420Z,60.65
2018-07-09T08:00:20.576Z,60.55
2018-07-09T08:01:20.733Z,61.32
2018-07-09T08:02:20.890Z,61.13
2018-07-09T08:03:21.047Z,60.17
2018-07-09T08:04:21.204Z,61.04
2018-07-09T08:05:21.361Z,60.55
2018-07-09T08:06:21.517Z,60.84
2018-07-09T08:07:21.672Z,59.20
2018-07-09T08:08:21.830Z,59.78
2018-07-09T08:09:22.010Z,59.49
2018-07-09T08:10:22.142Z,59.49
2018-07-09T08:11:47.688Z,58.92
2018-07-09T08:13:29.425Z,58.24
2018-07-09T08:14:22.765Z,59.30
2018-07-09T08:15:22.922Z,59.49
2018-07-09T08:16:23.086Z,58.92
2018-07-09T08:17:23.235Z,58.44
2018-07-09T08:18:23.388Z,58.27
2018-07-09T08:19:23.546Z,57.76
2018-07-09T08:20:23.703Z,58.27
2018-07-09T08:21:23.861Z,58.24
2018-07-09T08:22:24.018Z,56.92
2018-07-09T08:23:24.173Z,55.35
2018-07-09T08:24:24.357Z,55.35
2018-07-09T08:25:24.490Z,55.35
2018-07-09T08:26:24.644Z,56.22
2018-07-09T08:27:24.801Z,55.93
2018-07-09T08:28:24.960Z,55.65
2018-07-09T08:29:25.115Z,57.12
2018-07-09T08:30:25.274Z,56.73
2018-07-09T08:31:25.467Z,56.63
2018-07-09T08:32:25.585Z,55.87
2018-07-09T08:33:25.762Z,56.35
2018-07-09T08:34:25.903Z,57.02
2018-07-09T08:35:26.057Z,55.51
2018-07-09T08:36:26.214Z,55.96
2018-07-09T08:37:26.372Z,56.73
2018-07-09T08:38:26.531Z,56.63
2018-07-09T08:39:26.688Z,55.57
2018-07-09T08:40:26.846Z,54.90
2018-07-09T08:41:27.001Z,55.67
2018-07-09T08:42:27.156Z,55.89
2018-07-09T08:43:27.314Z,55.79
2018-07-09T08:44:27.472Z,55.31
2018-07-09T08:45:27.629Z,55.12
2018-07-09T08:46:27.790Z,53.96
2018-07-09T08:47:28.005Z,53.67
2018-07-09T08:48:28.132Z,52.55
2018-07-09T08:49:28.289Z,52.83
2018-07-09T08:50:28.446Z,52.61
2018-07-09T08:51:28.602Z,52.64
2018-07-09T08:52:28.760Z,51.39
2018-07-09T08:53:28.915Z,51.29
2018-07-09T08:54:29.077Z,51.70
2018-07-09T08:55:29.234Z,51.80
2018-07-09T08:56:29.389Z,51.51
2018-07-09T08:57:29.547Z,51.51
2018-07-09T08:58:29.703Z,51.92
2018-07-09T08:59:29.862Z,51.82
2018-07-09T09:00:30.021Z,52.59
2018-07-09T09:01:30.177Z,51.07
2018-07-09T09:02:30.331Z,48.06
2018-07-09T09:03:30.488Z,49.24
2018-07-09T09:04:30.646Z,48.06
2018-07-09T09:05:30.805Z,49.12
2018-07-09T09:06:30.963Z,49.12
2018-07-09T09:07:31.122Z,49.90
2018-07-09T09:08:31.278Z,50.38
2018-07-09T09:09:31.437Z,50.28
2018-07-09T09:10:31.596Z,49.51
2018-07-09T09:11:31.751Z,47.96
2018-07-09T09:12:31.910Z,48.57
2018-07-09T09:13:32.072Z,47.60
2018-07-09T09:14:32.226Z,47.19
2018-07-09T09:15:32.386Z,47.96
2018-07-09T09:16:32.601Z,48.74
2018-07-09T09:17:32.707Z,49.22
2018-07-09T09:18:32.861Z,48.25
2018-07-09T09:19:33.017Z,48.28
2018-07-09T09:20:33.176Z,47.87
2018-07-09T09:21:33.335Z,47.29
2018-07-09T09:22:33.494Z,47.77
2018-07-09T09:23:33.651Z,46.71
2018-07-09T09:24:33.813Z,46.71
2018-07-09T09:25:34.007Z,46.81
2018-07-09T09:26:34.129Z,44.97
2018-07-09T09:27:34.287Z,44.95
2018-07-09T09:28:34.448Z,45.36
2018-07-09T09:29:34.605Z,44.01
2018-07-09T09:30:34.763Z,43.62
2018-07-09T09:31:35.007Z,43.72
2018-07-09T09:32:35.081Z,43.91
2018-07-09T09:33:35.243Z,43.43
2018-07-09T09:34:35.397Z,42.85
2018-07-09T09:35:35.562Z,43.14
2018-07-09T09:36:35.725Z,41.03
2018-07-09T09:37:35.948Z,39.59
2018-07-09T09:38:36.039Z,38.81
2018-07-09T09:39:36.196Z,38.33
2018-07-09T09:40:36.353Z,37.83
2018-07-09T09:41:36.512Z,39.87
2018-07-09T09:42:36.671Z,40.36
2018-07-09T09:43:36.828Z,39.61
2018-07-09T09:44:36.986Z,38.23
2018-07-09T09:45:37.146Z,38.25
2018-07-09T09:46:37.303Z,37.58
2018-07-09T09:47:37.462Z,36.11
2018-07-09T09:48:37.621Z,35.14
2018-07-09T09:49:37.778Z,35.34
2018-07-09T09:50:37.944Z,34.66
2018-07-09T09:51:38.102Z,34.28
2018-07-09T09:52:38.258Z,34.18
2018-07-09T09:53:38.459Z,32.84
2018-07-09T09:54:38.623Z,32.46
2018-07-09T09:55:38.778Z,31.10
2018-07-09T09:56:38.936Z,31.68
2018-07-09T09:57:39.099Z,33.23
2018-07-09T09:58:39.252Z,34.20
2018-07-09T09:59:39.411Z,32.26
2018-07-09T10:00:39.580Z,33.54
2018-07-09T10:01:39.729Z,33.81
2018-07-09T10:02:39.889Z,34.12
2018-07-09T10:03:40.049Z,33.63
2018-07-09T10:04:40.206Z,32.46
2018-07-09T10:05:40.368Z,31.59
2018-07-09T10:06:40.524Z,32.09
2018-07-09T10:07:40.686Z,30.62
2018-07-09T10:08:40.861Z,31.30
2018-07-09T10:09:41.005Z,31.78
2018-07-09T10:10:41.156Z,31.98
2018-07-09T10:11:41.315Z,31.80
2018-07-09T10:12:41.474Z,31.80
2018-07-09T10:13:41.632Z,31.68
2018-07-09T10:14:41.791Z,33.23
2018-07-09T10:15:41.965Z,33.44
2018-07-09T10:16:42.110Z,35.28
2018-07-09T10:17:42.270Z,35.95
2018-07-09T10:18:42.429Z,35.10
2018-07-09T10:19:42.588Z,36.07
2018-07-09T10:20:42.746Z,35.58
2018-07-09T10:21:42.905Z,35.00
2018-07-09T10:22:43.119Z,35.39
2018-07-09T10:23:43.222Z,32.59
2018-07-09T10:24:43.380Z,30.94
2018-07-09T10:25:43.543Z,30.93
2018-07-09T10:26:43.701Z,30.35
2018-07-09T10:27:43.860Z,31.68
2018-07-09T10:28:44.020Z,32.26
2018-07-09T10:29:44.179Z,33.15
2018-07-09T10:30:44.344Z,33.44
2018-07-09T10:31:44.498Z,34.23
2018-07-09T10:32:44.656Z,33.45
2018-07-09T10:33:44.810Z,33.37
2018-07-09T10:34:44.972Z,33.28
2018-07-09T10:35:45.130Z,33.67
2018-07-09T10:36:45.288Z,33.29
2018-07-09T10:37:45.449Z,33.01
2018-07-09T10:38:45.614Z,31.93
2018-07-09T10:39:45.765Z,32.91
2018-07-09T10:40:45.928Z,32.52
2018-07-09T10:41:46.090Z,33.41
2018-07-09T10:42:46.251Z,33.31
2018-07-09T10:43:46.412Z,34.09
2018-07-09T10:44:46.570Z,33.22
2018-07-09T10:45:46.730Z,32.82
2018-07-09T10:46:46.891Z,33.12
2018-07-09T10:47:47.052Z,33.41
2018-07-09T10:48:47.212Z,32.54
2018-07-09T10:49:47.372Z,33.12
2018-07-09T10:50:47.533Z,32.54
2018-07-09T10:51:47.692Z,33.41
2018-07-09T10:52:47.852Z,33.60
2018-07-09T10:53:48.012Z,33.02
2018-07-09T10:54:48.174Z,32.52
2018-07-09T10:55:48.334Z,33.49
2018-07-09T10:56:48.494Z,34.27
2018-07-09T10:57:48.656Z,34.65
2018-07-09T10:58:48.817Z,34.27
2018-07-09T10:59:48.976Z,33.95
2018-07-09T11:00:49.150Z,34.05
2018-07-09T11:01:49.298Z,34.54
2018-07-09T11:02:49.460Z,34.65
2018-07-09T11:03:49.621Z,33.59
2018-07-09T11:04:49.782Z,34.09
2018-07-09T11:05:49.945Z,34.49
2018-07-09T11:06:50.106Z,35.07
2018-07-09T11:07:50.268Z,35.75
2018-07-09T11:08:50.425Z,34.78
2018-07-09T11:09:50.588Z,35.46
2018-07-09T11:10:50.749Z,35.36
2018-07-09T11:11:50.910Z,34.01
2018-07-09T11:12:51.074Z,33.80
2018-07-09T11:13:51.231Z,33.78
2018-07-09T11:14:51.393Z,34.45
2018-07-09T11:15:51.552Z,34.54
2018-07-09T11:16:51.711Z,35.12
2018-07-09T11:17:51.874Z,35.41
2018-07-09T11:18:52.034Z,35.52
2018-07-09T11:19:52.192Z,34.27
2018-07-09T11:20:52.353Z,34.27
2018-07-09T11:21:52.517Z,34.86
2018-07-09T11:22:52.674Z,35.25
2018-07-09T11:23:52.835Z,33.31
2018-07-09T11:24:52.998Z,33.97
2018-07-09T11:25:53.155Z,35.44
2018-07-09T11:26:53.318Z,35.15
2018-07-09T11:27:53.478Z,33.70
2018-07-09T11:28:53.637Z,33.80
2018-07-09T11:29:53.800Z,34.77
2018-07-09T11:30:53.958Z,34.57
2018-07-09T11:31:54.118Z,34.69
2018-07-09T11:32:54.276Z,35.15
2018-07-09T11:33:54.469Z,35.25
2018-07-09T11:34:54.597Z,35.25
2018-07-09T11:35:54.772Z,36.70
2018-07-09T11:36:54.920Z,36.02
2018-07-09T11:37:55.079Z,35.44
2018-07-09T11:38:55.238Z,35.36
2018-07-09T11:39:55.399Z,35.17
2018-07-09T11:40:55.562Z,35.64
2018-07-09T11:41:55.722Z,35.44
2018-07-09T11:42:55.884Z,35.91
2018-07-09T11:43:56.042Z,36.49
2018-07-09T11:44:56.211Z,36.80
2018-07-09T11:45:56.366Z,36.78
2018-07-09T11:46:56.524Z,38.35
2018-07-09T11:47:56.688Z,37.30
2018-07-09T11:48:56.851Z,37.28
2018-07-09T11:49:57.005Z,36.91
2018-07-09T11:50:57.169Z,36.62
2018-07-09T11:51:57.328Z,36.82
2018-07-09T11:52:57.490Z,37.71
2018-07-09T11:53:57.647Z,37.11
2018-07-09T11:54:57.809Z,38.29
2018-07-09T11:55:57.979Z,37.69
2018-07-09T11:56:58.127Z,38.58
2018-07-09T11:57:58.289Z,37.32
2018-07-09T11:58:58.512Z,36.76
2018-07-09T11:59:58.610Z,36.06
2018-07-09T12:00:58.771Z,36.72
2018-07-09T12:01:59.016Z,37.32
2018-07-09T12:02:59.101Z,37.69
2018-07-09T12:03:59.259Z,38.07
2018-07-09T12:04:59.420Z,38.56
2018-07-09T12:05:59.583Z,39.22
2018-07-09T12:06:59.742Z,39.53
2018-07-09T12:07:59.903Z,39.34
2018-07-09T12:09:00.066Z,40.03
2018-07-09T12:10:00.224Z,39.37
2018-07-09T12:11:00.386Z,38.02
2018-07-09T12:12:00.546Z,38.70
2018-07-09T12:13:00.710Z,38.40
2018-07-09T12:14:00.867Z,36.87
2018-07-09T12:15:01.031Z,37.16
2018-07-09T12:16:01.193Z,37.35
2018-07-09T12:17:01.358Z,37.53
2018-07-09T12:18:01.516Z,36.56
2018-07-09T12:19:01.678Z,36.66
2018-07-09T12:20:01.841Z,38.21
2018-07-09T12:21:02.002Z,37.15
2018-07-09T12:22:02.165Z,38.60
2018-07-09T12:23:02.329Z,38.50
2018-07-09T12:24:02.490Z,38.21
2018-07-09T12:25:02.654Z,38.48
2018-07-09T12:26:02.818Z,39.36
2018-07-09T12:27:02.979Z,39.65
2018-07-09T12:28:03.143Z,39.37
2018-07-09T12:29:03.318Z,38.31
2018-07-09T12:30:03.468Z,39.08
2018-07-09T12:31:03.629Z,38.81
2018-07-09T12:32:03.789Z,38.13
2018-07-09T12:33:03.955Z,38.91
2018-07-09T12:34:04.114Z,39.49
2018-07-09T12:35:04.276Z,38.52
2018-07-09T12:36:04.483Z,38.79
2018-07-09T12:37:04.602Z,39.94
2018-07-09T12:38:04.761Z,40.99
2018-07-09T12:39:04.925Z,40.99
2018-07-09T12:40:05.086Z,40.89
2018-07-09T12:41:05.249Z,41.86
2018-07-09T12:42:05.411Z,41.76
2018-07-09T12:43:05.573Z,42.05
2018-07-09T12:44:05.733Z,41.68
2018-07-09T12:45:05.896Z,41.30
2018-07-09T12:46:06.057Z,41.39
2018-07-09T12:47:06.217Z,41.61
2018-07-09T12:48:06.379Z,41.02
2018-07-09T12:49:06.540Z,41.20
2018-07-09T12:50:06.703Z,41.99
2018-07-09T12:51:06.865Z,41.02
2018-07-09T12:52:07.029Z,41.72
2018-07-09T12:53:07.189Z,40.19
2018-07-09T12:54:07.350Z,39.80
2018-07-09T12:55:07.514Z,39.90